createdAt,value
2018-05-29T00:01:46.453Z,21.40
2018-05-29T00:04:13.931Z,21.40
2018-05-29T00:06:42.176Z,21.30
2018-05-29T00:09:09.664Z,21.30
2018-05-29T00:11:37.153Z,21.20
2018-05-29T00:14:04.635Z,21.20
2018-05-29T00:16:32.105Z,21.10
2018-05-29T00:18:59.603Z,21.00
2018-05-29T00:21:27.845Z,20.90
2018-05-29T00:23:55.337Z,20.90
2018-05-29T00:26:22.827Z,20.90
2018-05-29T00:28:50.305Z,20.90
2018-05-29T00:31:17.793Z,20.90
2018-05-29T00:33:45.272Z,20.90
2018-05-29T00:36:13.510Z,20.70
2018-05-29T00:38:41.412Z,20.70
2018-05-29T00:41:09.687Z,20.60
2018-05-29T00:43:37.921Z,20.60
2018-05-29T00:46:05.411Z,20.60
2018-05-29T00:48:32.905Z,20.60
2018-05-29T00:51:00.363Z,20.60
2018-05-29T00:53:27.837Z,20.60
2018-05-29T00:55:55.313Z,20.60
2018-05-29T00:58:22.825Z,20.40
2018-05-29T01:00:50.320Z,20.40
2018-05-29T01:03:17.805Z,20.40
2018-05-29T01:05:45.313Z,20.50
2018-05-29T01:08:12.794Z,20.40
2018-05-29T01:10:40.241Z,20.50
2018-05-29T01:13:07.744Z,20.50
2018-05-29T01:15:35.237Z,20.50
2018-05-29T01:18:02.812Z,20.50
2018-05-29T01:20:30.303Z,20.60
2018-05-29T01:22:57.778Z,20.60
2018-05-29T01:25:25.261Z,20.60
2018-05-29T01:27:52.757Z,20.50
2018-05-29T01:30:20.252Z,20.50
2018-05-29T01:32:47.757Z,20.50
2018-05-29T01:35:15.229Z,20.50
2018-05-29T01:37:42.705Z,20.40
2018-05-29T01:40:10.193Z,20.50
2018-05-29T01:42:38.430Z,20.40
2018-05-29T01:45:05.942Z,20.40
2018-05-29T01:47:33.433Z,20.30
2018-05-29T01:50:00.933Z,20.30
2018-05-29T01:52:28.427Z,20.30
2018-05-29T01:54:55.937Z,20.30
2018-05-29T01:57:23.434Z,20.20
2018-05-29T01:59:51.681Z,20.10
2018-05-29T02:02:19.145Z,20.10
2018-05-29T02:04:46.644Z,20.00
2018-05-29T02:07:14.141Z,20.00
2018-05-29T02:09:41.630Z,20.00
2018-05-29T02:12:09.101Z,20.00
2018-05-29T02:14:36.589Z,20.00
2018-05-29T02:17:04.040Z,20.00
2018-05-29T02:19:31.507Z,20.00
2018-05-29T02:21:58.984Z,20.00
2018-05-29T02:24:26.460Z,20.00
2018-05-29T02:26:53.934Z,19.90
2018-05-29T02:29:21.411Z,19.90
2018-05-29T02:31:48.937Z,19.90
2018-05-29T02:34:16.430Z,19.90
2018-05-29T02:36:43.918Z,19.90
2018-05-29T02:39:11.436Z,19.80
2018-05-29T02:41:38.903Z,19.80
2018-05-29T02:44:06.396Z,19.80
2018-05-29T02:46:33.896Z,19.80
2018-05-29T02:49:02.129Z,19.70
2018-05-29T02:51:29.582Z,19.70
2018-05-29T02:53:57.050Z,19.70
2018-05-29T02:56:24.492Z,19.70
2018-05-29T02:58:51.989Z,19.70
2018-05-29T03:01:19.478Z,19.70
2018-05-29T03:03:46.987Z,19.70
2018-05-29T03:06:14.494Z,19.60
2018-05-29T03:08:41.999Z,19.60
2018-05-29T03:11:09.466Z,19.50
2018-05-29T03:13:36.989Z,19.50
2018-05-29T03:16:04.457Z,19.50
2018-05-29T03:18:31.926Z,19.50
2018-05-29T03:20:59.405Z,19.50
2018-05-29T03:23:28.531Z,19.50
2018-05-29T03:25:56.818Z,19.50
2018-05-29T03:28:25.024Z,19.40
2018-05-29T03:30:52.471Z,19.40
2018-05-29T03:33:19.973Z,19.30
2018-05-29T03:35:47.461Z,19.30
2018-05-29T03:38:14.908Z,19.40
2018-05-29T03:40:43.157Z,19.30
2018-05-29T03:43:10.625Z,19.30
2018-05-29T03:45:38.087Z,19.30
2018-05-29T03:48:05.557Z,19.30
2018-05-29T03:50:33.808Z,19.40
2018-05-29T03:53:01.315Z,19.30
2018-05-29T03:55:28.808Z,19.30
2018-05-29T03:57:56.301Z,19.30
2018-05-29T04:00:24.543Z,19.40
2018-05-29T04:02:52.022Z,19.30
2018-05-29T04:05:19.538Z,19.30
2018-05-29T04:07:47.021Z,19.30
2018-05-29T04:10:14.531Z,19.40
2018-05-29T04:12:42.022Z,19.40
2018-05-29T04:15:09.535Z,19.40
2018-05-29T04:17:37.781Z,19.50
2018-05-29T04:20:05.281Z,19.50
2018-05-29T04:22:32.769Z,19.50
2018-05-29T04:25:00.230Z,19.50
2018-05-29T04:27:27.699Z,19.50
2018-05-29T04:29:55.178Z,19.50
2018-05-29T04:32:22.677Z,19.50
2018-05-29T04:34:50.128Z,19.40
2018-05-29T04:37:17.581Z,19.40
2018-05-29T04:39:45.052Z,19.50
2018-05-29T04:42:12.519Z,19.50
2018-05-29T04:44:40.026Z,19.60
2018-05-29T04:47:07.539Z,19.60
2018-05-29T04:49:35.048Z,19.60
2018-05-29T04:52:02.492Z,19.70
2018-05-29T04:54:30.014Z,19.70
2018-05-29T04:56:57.506Z,19.70
2018-05-29T04:59:24.996Z,19.70
2018-05-29T05:01:53.286Z,19.70
2018-05-29T05:04:20.786Z,19.70
2018-05-29T05:06:48.245Z,19.80
2018-05-29T05:09:15.708Z,19.90
2018-05-29T05:11:43.184Z,19.90
2018-05-29T05:14:10.646Z,19.90
2018-05-29T05:16:38.113Z,20.00
2018-05-29T05:19:06.327Z,20.10
2018-05-29T05:21:33.837Z,20.10
2018-05-29T05:24:01.319Z,20.30
2018-05-29T05:26:28.822Z,20.40
2018-05-29T05:28:56.295Z,20.40
2018-05-29T05:31:23.789Z,20.50
2018-05-29T05:33:51.280Z,20.50
2018-05-29T05:36:18.723Z,20.60
2018-05-29T05:38:46.218Z,20.60
2018-05-29T05:41:13.695Z,20.70
2018-05-29T05:43:41.178Z,20.70
2018-05-29T05:46:08.673Z,20.80
2018-05-29T05:48:36.115Z,20.80
2018-05-29T05:51:03.617Z,20.90
2018-05-29T05:53:31.106Z,21.00
2018-05-29T05:55:59.341Z,21.10
2018-05-29T05:58:26.829Z,21.00
2018-05-29T06:00:55.069Z,21.30
2018-05-29T06:03:22.520Z,21.30
2018-05-29T06:05:49.996Z,21.40
2018-05-29T06:08:17.476Z,21.40
2018-05-29T06:10:45.741Z,21.50
2018-05-29T06:13:13.964Z,21.60
2018-05-29T06:15:41.436Z,21.60
2018-05-29T06:18:08.901Z,21.60
2018-05-29T06:20:36.354Z,21.60
2018-05-29T06:23:03.842Z,21.70
2018-05-29T06:25:31.376Z,21.70
2018-05-29T06:27:58.826Z,21.80
2018-05-29T06:30:26.298Z,21.80
2018-05-29T06:32:53.749Z,21.90
2018-05-29T06:35:21.237Z,22.00
2018-05-29T06:37:48.676Z,22.00
2018-05-29T06:40:16.149Z,22.00
2018-05-29T06:42:43.621Z,22.00
2018-05-29T06:45:11.913Z,21.70
2018-05-29T06:47:39.351Z,21.80
2018-05-29T06:50:07.593Z,21.80
2018-05-29T06:52:35.107Z,21.80
2018-05-29T06:55:03.297Z,21.80
2018-05-29T06:57:30.774Z,21.80
2018-05-29T06:59:58.221Z,21.70
2018-05-29T07:02:25.696Z,21.70
2018-05-29T07:04:53.178Z,21.80
2018-05-29T07:07:20.622Z,22.00
2018-05-29T07:09:48.097Z,22.00
2018-05-29T07:12:15.540Z,22.00
2018-05-29T07:14:43.022Z,22.10
2018-05-29T07:17:11.279Z,22.10
2018-05-29T07:19:38.753Z,22.00
2018-05-29T07:22:07.006Z,22.10
2018-05-29T07:24:34.473Z,22.10
2018-05-29T07:27:01.950Z,22.10
2018-05-29T07:29:30.165Z,22.20
2018-05-29T07:31:57.649Z,22.20
2018-05-29T07:34:25.112Z,22.20
2018-05-29T07:36:52.563Z,22.20
2018-05-29T07:39:20.053Z,22.20
2018-05-29T07:41:48.265Z,22.40
2018-05-29T07:44:15.716Z,22.40
2018-05-29T07:46:43.206Z,22.40
2018-05-29T07:49:10.693Z,22.40
2018-05-29T07:51:38.916Z,22.40
2018-05-29T07:54:06.397Z,22.40
2018-05-29T07:56:33.861Z,22.60
2018-05-29T07:59:01.321Z,22.70
2018-05-29T08:01:28.809Z,23.00
2018-05-29T08:03:57.034Z,22.90
2018-05-29T08:06:24.542Z,22.80
2018-05-29T08:08:52.771Z,22.90
2018-05-29T08:11:20.257Z,22.90
2018-05-29T08:13:47.719Z,22.70
2018-05-29T08:16:15.989Z,22.80
2018-05-29T08:18:43.458Z,22.80
2018-05-29T08:21:11.704Z,22.90
2018-05-29T08:23:39.208Z,22.90
2018-05-29T08:26:06.666Z,23.00
2018-05-29T08:28:34.897Z,22.70
2018-05-29T08:31:02.362Z,22.70
2018-05-29T08:33:29.837Z,22.90
2018-05-29T08:35:58.074Z,23.00
2018-05-29T08:38:25.577Z,22.90
2018-05-29T08:40:53.814Z,23.40
2018-05-29T08:43:21.308Z,23.40
2018-05-29T08:45:49.558Z,23.10
2018-05-29T08:48:17.035Z,23.10
2018-05-29T08:50:45.313Z,23.20
2018-05-29T08:53:13.560Z,23.10
2018-05-29T08:55:41.060Z,23.10
2018-05-29T08:58:09.272Z,22.90
2018-05-29T09:00:36.768Z,22.90
2018-05-29T09:03:04.239Z,23.00
2018-05-29T09:05:31.693Z,23.20
2018-05-29T09:07:59.949Z,23.30
2018-05-29T09:10:27.437Z,23.30
2018-05-29T09:12:55.689Z,23.60
2018-05-29T09:15:23.174Z,23.50
2018-05-29T09:17:51.520Z,23.60
2018-05-29T09:20:18.994Z,23.60
2018-05-29T09:22:46.509Z,23.80
2018-05-29T09:25:13.969Z,23.70
2018-05-29T09:27:41.484Z,23.70
2018-05-29T09:30:08.975Z,23.70
2018-05-29T09:32:36.466Z,23.70
2018-05-29T09:35:03.927Z,24.10
2018-05-29T09:37:31.426Z,23.90
2018-05-29T09:39:58.958Z,23.90
2018-05-29T09:42:26.438Z,24.10
2018-05-29T09:44:53.904Z,24.20
2018-05-29T09:47:21.481Z,24.60
2018-05-29T09:49:48.927Z,24.70
2018-05-29T09:52:16.373Z,24.30
2018-05-29T09:54:43.901Z,24.20
2018-05-29T09:57:11.337Z,24.20
2018-05-29T09:59:38.844Z,24.40
2018-05-29T10:02:06.336Z,24.60
2018-05-29T10:04:33.840Z,24.80
2018-05-29T10:07:02.164Z,24.70
2018-05-29T10:09:29.581Z,24.60
2018-05-29T10:11:57.825Z,24.80
2018-05-29T10:14:25.391Z,24.70
2018-05-29T10:16:53.601Z,25.10
2018-05-29T10:19:21.113Z,25.10
2018-05-29T10:21:48.542Z,25.00
2018-05-29T10:24:16.064Z,25.00
2018-05-29T10:26:44.342Z,24.70
2018-05-29T10:29:11.782Z,24.70
2018-05-29T10:31:39.279Z,24.70
2018-05-29T10:34:06.781Z,24.30
2018-05-29T10:36:34.228Z,24.30
2018-05-29T10:39:01.743Z,24.80
2018-05-29T10:41:29.245Z,25.00
2018-05-29T10:43:56.730Z,25.20
2018-05-29T10:46:24.201Z,25.10
2018-05-29T10:48:52.453Z,25.20
2018-05-29T10:51:20.034Z,25.20
2018-05-29T10:53:48.265Z,25.30
2018-05-29T10:56:15.728Z,25.30
2018-05-29T10:58:43.202Z,25.30
2018-05-29T11:01:10.707Z,25.00
2018-05-29T11:03:38.945Z,24.90
2018-05-29T11:06:06.399Z,24.90
2018-05-29T11:08:33.863Z,25.10
2018-05-29T11:11:01.357Z,25.30
2018-05-29T11:13:28.832Z,25.20
2018-05-29T11:15:56.314Z,25.30
2018-05-29T11:18:23.817Z,25.40
2018-05-29T11:20:52.078Z,25.50
2018-05-29T11:23:19.582Z,25.50
2018-05-29T11:28:21.945Z,25.60
2018-05-29T11:30:50.217Z,25.70
2018-05-29T11:33:18.453Z,25.50
2018-05-29T11:35:45.939Z,25.50
2018-05-29T11:38:13.453Z,25.90
2018-05-29T11:40:40.917Z,26.00
2018-05-29T11:43:08.366Z,26.10
2018-05-29T11:45:35.836Z,26.20
2018-05-29T11:48:03.323Z,26.20
2018-05-29T11:50:30.802Z,26.10
2018-05-29T11:52:58.402Z,25.50
2018-05-29T11:55:25.860Z,25.60
2018-05-29T11:57:53.304Z,25.40
2018-05-29T12:00:20.788Z,25.40
2018-05-29T12:02:48.281Z,25.40
2018-05-29T12:05:15.765Z,25.50
2018-05-29T12:07:43.309Z,25.50
2018-05-29T12:10:10.757Z,25.60
2018-05-29T12:12:38.243Z,25.60
2018-05-29T12:15:05.746Z,25.50
2018-05-29T12:17:33.201Z,25.30
2018-05-29T12:20:00.695Z,25.30
2018-05-29T12:22:28.149Z,25.10
2018-05-29T12:24:56.397Z,25.00
2018-05-29T12:27:23.852Z,25.00
2018-05-29T12:29:51.360Z,25.00
2018-05-29T12:32:18.844Z,24.90
2018-05-29T12:34:46.321Z,25.00
2018-05-29T12:37:13.772Z,25.00
2018-05-29T12:39:41.261Z,25.10
2018-05-29T12:42:08.755Z,25.10
2018-05-29T12:44:36.288Z,25.20
2018-05-29T12:47:04.553Z,24.70
2018-05-29T12:49:32.773Z,24.70
2018-05-29T12:52:00.250Z,24.70
2018-05-29T12:54:27.696Z,24.80
2018-05-29T12:56:55.204Z,24.80
2018-05-29T12:59:23.423Z,24.40
2018-05-29T13:01:50.898Z,24.40
2018-05-29T13:04:18.345Z,24.30
2018-05-29T13:06:45.836Z,24.30
2018-05-29T13:09:13.321Z,24.10
2018-05-29T13:11:41.574Z,23.90
2018-05-29T13:14:09.037Z,23.80
2018-05-29T13:16:36.543Z,23.70
2018-05-29T13:19:04.792Z,23.80
2018-05-29T13:21:32.286Z,23.80
2018-05-29T13:23:59.761Z,23.80
2018-05-29T13:26:27.236Z,23.90
2018-05-29T13:28:54.737Z,24.00
2018-05-29T13:31:22.232Z,24.10
2018-05-29T13:33:49.687Z,24.00
2018-05-29T13:36:17.173Z,24.20
2018-05-29T13:38:44.638Z,24.20
2018-05-29T13:41:12.873Z,24.90
2018-05-29T13:43:40.373Z,24.90
2018-05-29T13:46:08.605Z,26.60
2018-05-29T13:48:36.118Z,26.60
2018-05-29T13:51:04.369Z,27.30
2018-05-29T13:53:31.856Z,27.30
2018-05-29T13:55:59.363Z,28.10
2018-05-29T13:58:26.869Z,28.30
2018-05-29T14:00:55.109Z,28.90
2018-05-29T14:03:22.613Z,28.80
2018-05-29T14:05:50.045Z,29.60
2018-05-29T14:08:18.297Z,29.70
2018-05-29T14:10:45.756Z,29.70
2018-05-29T14:13:13.223Z,29.30
2018-05-29T14:15:40.713Z,27.70
2018-05-29T14:18:08.908Z,28.20
2018-05-29T14:20:36.375Z,28.20
2018-05-29T14:23:03.857Z,28.30
2018-05-29T14:25:31.340Z,28.40
2018-05-29T14:27:58.797Z,28.70
2018-05-29T14:30:26.303Z,28.90
2018-05-29T14:32:53.758Z,28.40
2018-05-29T14:35:21.194Z,27.80
2018-05-29T14:37:48.669Z,28.00
2018-05-29T14:40:16.154Z,27.30
2018-05-29T14:42:43.610Z,27.00
2018-05-29T14:45:11.082Z,26.60
2018-05-29T14:47:38.538Z,27.00
2018-05-29T14:50:06.005Z,26.50
2018-05-29T14:52:33.511Z,26.60
2018-05-29T14:58:04.604Z,26.80
2018-05-29T15:00:34.108Z,26.80
2018-05-29T15:03:01.700Z,27.70
2018-05-29T15:05:29.373Z,28.70
2018-05-29T15:07:57.598Z,29.50
2018-05-29T15:10:25.137Z,29.50
2018-05-29T15:12:52.616Z,28.90
2018-05-29T15:15:20.106Z,28.90
2018-05-29T15:17:47.564Z,28.90
2018-05-29T15:20:15.083Z,28.90
2018-05-29T15:22:42.550Z,29.30
2018-05-29T15:25:10.037Z,29.50
2018-05-29T15:27:37.544Z,29.80
2018-05-29T15:30:05.065Z,29.40
2018-05-29T15:32:32.556Z,29.70
2018-05-29T15:35:00.009Z,29.70
2018-05-29T15:37:27.500Z,29.10
2018-05-29T15:39:54.978Z,28.90
2018-05-29T15:42:22.461Z,28.50
2018-05-29T15:44:50.680Z,27.80
2018-05-29T15:47:18.127Z,27.70
2018-05-29T15:49:45.602Z,27.50
2018-05-29T15:52:13.099Z,27.00
2018-05-29T15:54:40.552Z,27.00
2018-05-29T15:57:08.051Z,26.30
2018-05-29T15:59:35.537Z,26.40
2018-05-29T16:02:03.025Z,26.40
2018-05-29T16:04:30.512Z,26.50
2018-05-29T16:06:57.976Z,26.50
2018-05-29T16:09:25.461Z,26.40
2018-05-29T16:11:52.955Z,26.50
2018-05-29T16:14:20.521Z,26.30
2018-05-29T16:16:47.933Z,26.30
2018-05-29T16:19:15.410Z,25.80
2018-05-29T16:21:42.894Z,25.50
2018-05-29T16:24:10.357Z,25.30
2018-05-29T16:26:38.645Z,25.30
2018-05-29T16:29:06.050Z,25.30
2018-05-29T16:31:33.563Z,25.30
2018-05-29T16:34:01.823Z,25.10
2018-05-29T16:36:29.263Z,25.10
2018-05-29T16:38:56.753Z,25.10
2018-05-29T16:41:24.220Z,25.00
2018-05-29T16:43:51.724Z,24.80
2018-05-29T16:46:19.163Z,24.80
2018-05-29T16:48:46.641Z,24.80
2018-05-29T16:51:14.109Z,24.90
2018-05-29T16:53:41.914Z,24.90
2018-05-29T16:56:10.154Z,24.80
2018-05-29T16:58:37.645Z,24.80
2018-05-29T17:01:05.101Z,24.70
2018-05-29T17:03:32.602Z,25.00
2018-05-29T17:06:00.092Z,25.00
2018-05-29T17:08:27.549Z,25.40
2018-05-29T17:10:55.775Z,26.80
2018-05-29T17:13:23.252Z,26.80
2018-05-29T17:15:50.724Z,27.10
2018-05-29T17:18:18.222Z,27.40
2018-05-29T17:20:45.685Z,27.40
2018-05-29T17:23:13.171Z,27.60
2018-05-29T17:25:40.612Z,28.10
2018-05-29T17:28:08.112Z,28.30
2018-05-29T17:30:35.600Z,28.10
2018-05-29T17:33:03.828Z,28.60
2018-05-29T17:35:31.366Z,28.50
2018-05-29T17:37:58.828Z,28.90
2018-05-29T17:40:26.297Z,28.60
2018-05-29T17:42:53.799Z,28.70
2018-05-29T17:45:21.250Z,29.00
2018-05-29T17:47:49.500Z,28.20
2018-05-29T17:50:17.171Z,28.20
2018-05-29T17:52:45.431Z,27.80
2018-05-29T17:55:12.901Z,27.70
2018-05-29T17:57:40.429Z,28.30
2018-05-29T18:00:08.006Z,28.60
2018-05-29T18:02:35.618Z,28.40
2018-05-29T18:05:03.136Z,28.00
2018-05-29T18:07:30.616Z,28.30
2018-05-29T18:09:58.852Z,27.80
2018-05-29T18:12:26.467Z,27.80
2018-05-29T18:14:53.956Z,27.50
2018-05-29T18:17:21.622Z,27.30
2018-05-29T18:19:49.108Z,27.20
2018-05-29T18:22:16.825Z,27.00
2018-05-29T18:24:44.484Z,26.80
2018-05-29T18:27:12.122Z,26.50
2018-05-29T18:29:39.732Z,26.50
2018-05-29T18:32:07.238Z,26.80
2018-05-29T18:34:34.696Z,26.50
2018-05-29T18:37:02.269Z,26.50
2018-05-29T18:39:30.512Z,26.30
2018-05-29T18:41:58.005Z,26.30
2018-05-29T18:44:26.273Z,26.30
2018-05-29T18:46:54.533Z,26.20
2018-05-29T18:49:22.030Z,26.20
2018-05-29T18:51:49.475Z,26.10
2018-05-29T18:54:17.733Z,25.70
2018-05-29T18:56:45.951Z,25.40
2018-05-29T18:59:13.465Z,25.40
2018-05-29T19:01:41.689Z,25.30
2018-05-29T19:04:09.149Z,25.20
2018-05-29T19:06:36.660Z,25.20
2018-05-29T19:09:05.761Z,24.90
2018-05-29T19:11:33.984Z,24.70
2018-05-29T19:14:01.477Z,24.70
2018-05-29T19:16:28.949Z,24.70
2018-05-29T19:18:57.200Z,24.10
2018-05-29T19:21:24.697Z,24.10
2018-05-29T19:23:52.941Z,23.80
2018-05-29T19:26:20.422Z,23.80
2018-05-29T19:28:48.903Z,23.60
2018-05-29T19:31:16.323Z,23.60
2018-05-29T19:33:43.805Z,23.50
2018-05-29T19:36:11.289Z,23.30
2018-05-29T19:38:39.533Z,22.90
2018-05-29T19:41:07.015Z,22.80
2018-05-29T19:43:34.479Z,22.80
2018-05-29T19:46:02.750Z,22.30
2018-05-29T19:48:30.218Z,22.20
2018-05-29T19:50:57.774Z,22.20
2018-05-29T19:53:25.248Z,22.20
2018-05-29T19:55:52.820Z,22.10
2018-05-29T19:58:21.293Z,22.20
2018-05-29T20:00:50.008Z,22.10
2018-05-29T20:03:17.565Z,22.00
2018-05-29T20:05:45.013Z,22.10
2018-05-29T20:08:12.612Z,22.00
2018-05-29T20:10:40.118Z,22.00
2018-05-29T20:13:08.724Z,21.90
2018-05-29T20:15:36.321Z,21.80
2018-05-29T20:18:04.600Z,21.80
2018-05-29T20:20:32.836Z,21.70
2018-05-29T20:23:00.305Z,21.70
2018-05-29T20:25:27.770Z,21.60
2018-05-29T20:27:55.273Z,21.50
2018-05-29T20:30:22.757Z,21.40
2018-05-29T20:32:50.237Z,21.40
2018-05-29T20:35:17.793Z,21.30
2018-05-29T20:37:45.277Z,21.20
2018-05-29T20:40:12.779Z,21.20
2018-05-29T20:42:40.256Z,21.20
2018-05-29T20:45:07.771Z,21.10
2018-05-29T20:47:35.274Z,21.10
2018-05-29T20:50:02.873Z,21.00
2018-05-29T20:52:30.266Z,20.90
2018-05-29T20:54:57.762Z,20.80
2018-05-29T20:57:25.265Z,20.70
2018-05-29T20:59:52.749Z,20.70
2018-05-29T21:02:20.237Z,20.60
2018-05-29T21:04:47.726Z,20.60
2018-05-29T21:07:15.216Z,20.50
2018-05-29T21:09:42.719Z,20.50
2018-05-29T21:12:10.242Z,20.50
2018-05-29T21:14:37.775Z,20.40
2018-05-29T21:17:05.229Z,20.30
2018-05-29T21:19:32.712Z,20.30
2018-05-29T21:22:00.178Z,20.20
2018-05-29T21:24:27.638Z,20.10
2018-05-29T21:26:55.110Z,20.10
2018-05-29T21:29:22.603Z,20.10
2018-05-29T21:31:50.898Z,20.00
2018-05-29T21:34:18.378Z,20.00
2018-05-29T21:36:45.871Z,19.90
2018-05-29T21:39:13.329Z,19.80
2018-05-29T21:41:40.842Z,19.70
2018-05-29T21:44:08.326Z,19.70
2018-05-29T21:46:35.878Z,19.60
2018-05-29T21:49:04.068Z,19.40
2018-05-29T21:51:31.521Z,19.30
2018-05-29T21:53:59.009Z,19.40
2018-05-29T21:56:27.248Z,19.30
2018-05-29T21:58:54.725Z,19.30
2018-05-29T22:01:22.236Z,19.30
2018-05-29T22:03:49.714Z,19.20
2018-05-29T22:06:17.169Z,19.20
2018-05-29T22:08:44.649Z,19.20
2018-05-29T22:11:12.113Z,19.20
2018-05-29T22:13:39.577Z,19.20
2018-05-29T22:16:07.069Z,19.20
2018-05-29T22:18:34.517Z,19.20
2018-05-29T22:21:02.056Z,19.20
2018-05-29T22:23:29.514Z,19.10
2018-05-29T22:25:56.966Z,19.00
2018-05-29T22:28:24.460Z,19.00
2018-05-29T22:30:52.682Z,19.00
2018-05-29T22:33:20.151Z,19.00
2018-05-29T22:35:47.679Z,18.90
2018-05-29T22:38:15.146Z,18.80
2018-05-29T22:40:42.592Z,18.70
2018-05-29T22:43:10.097Z,18.70
2018-05-29T22:45:37.540Z,18.70
2018-05-29T22:48:05.020Z,18.60
2018-05-29T22:50:32.480Z,18.60
2018-05-29T22:53:00.736Z,18.60
2018-05-29T22:55:28.198Z,18.50
2018-05-29T22:57:55.666Z,18.50
2018-05-29T23:00:23.888Z,18.50
2018-05-29T23:02:51.374Z,18.40
2018-05-29T23:05:18.846Z,18.40
2018-05-29T23:07:46.358Z,18.40
2018-05-29T23:10:13.830Z,18.30
2018-05-29T23:12:41.308Z,18.20
2018-05-29T23:15:08.809Z,18.30
2018-05-29T23:17:36.262Z,18.20
2018-05-29T23:20:03.765Z,18.20
2018-05-29T23:22:31.223Z,18.20
2018-05-29T23:24:58.710Z,18.20
2018-05-29T23:27:26.190Z,18.20
2018-05-29T23:29:54.425Z,18.10
2018-05-29T23:32:21.925Z,18.10
2018-05-29T23:34:50.224Z,18.10
2018-05-29T23:37:17.701Z,18.00
2018-05-29T23:39:45.168Z,18.10
2018-05-29T23:42:12.659Z,18.00
2018-05-29T23:44:40.897Z,17.90
2018-05-29T23:47:08.362Z,17.90
2018-05-29T23:49:35.855Z,17.90
2018-05-29T23:52:04.086Z,17.90
2018-05-29T23:54:31.591Z,17.90
2018-05-29T23:56:59.819Z,17.90
2018-05-29T23:59:27.285Z,17.90
